Terminal Aerodrome Forecast
Issued by NWS Austin/San Antonio, TX

Home | Current Version | Previous Version | Text Only | Print | Product List | Glossary On
Versions: 1 2 3 4 5 6 7 8 9 10 11 12 13 14 15 16 17 18 19 20 21 22 23 24 25 26 27 28
000
FTUS44 KEWX 020526 CCA
TAFSAT
TAF COR
KSAT 020526Z 0206/0312 16010KT P6SM OVC008
     FM021500 16010KT P6SM OVC015
     FM021800 16014KT P6SM SCT035
     FM030500 15011KT P6SM BKN015=

USA.gov is the U.S. government's official web portal to all federal, state and local government web resources and services.